Time,TemperatureF,DewpointF,PressureIn,WindDirection,WindDirectionDegrees,WindSpeedMPH,WindSpeedGustMPH,Humidity,HourlyPrecipIn,Conditions,Clouds,dailyrainin,SoftwareType,DateUTC
2013-12-25 00:01:00,7.9,1.1,30.18,NNE,23,3.6,5.1,73,0.00,,,0.00,WUHU216HW,2013-12-25 05:01:00,
2013-12-25 00:02:00,7.9,1.1,30.18,NNE,23,4.9,5.1,73,0.00,,,0.00,WUHU216HW,2013-12-25 05:02:00,
2013-12-25 00:07:00,7.7,0.3,30.18,NNE,23,4.9,5.6,71,0.00,,,0.00,WUHU216HW,2013-12-25 05:07:00,
2013-12-25 00:12:00,7.6,0.1,30.18,NNE,23,6.7,6.7,71,0.00,,,0.00,WUHU216HW,2013-12-25 05:12:00,
2013-12-25 00:17:00,7.4,-0.1,30.18,NNE,23,5.4,6.7,71,0.00,,,0.00,WUHU216HW,2013-12-25 05:17:00,
2013-12-25 00:22:00,7.2,0.0,30.18,NNE,23,0.2,6.7,72,0.00,,,0.00,WUHU216HW,2013-12-25 05:22:00,
2013-12-25 00:27:00,7.0,-0.2,30.18,NNE,23,2.5,5.4,72,0.00,,,0.00,WUHU216HW,2013-12-25 05:27:00,
2013-12-25 00:32:00,6.8,-0.6,30.18,NNE,23,4.7,8.3,71,0.00,,,0.00,WUHU216HW,2013-12-25 05:32:00,
2013-12-25 00:37:00,6.8,-0.9,30.18,NNE,23,3.4,8.3,70,0.00,,,0.00,WUHU216HW,2013-12-25 05:37:00,
2013-12-25 00:42:00,6.7,-0.8,30.18,NNE,23,1.6,5.8,71,0.00,,,0.00,WUHU216HW,2013-12-25 05:42:00,
2013-12-25 00:47:00,6.5,-1.0,30.19,NNE,23,2.9,6.3,71,0.00,,,0.00,WUHU216HW,2013-12-25 05:47:00,
2013-12-25 00:52:00,6.3,-0.9,30.19,NNE,23,9.2,9.2,72,0.00,,,0.00,WUHU216HW,2013-12-25 05:52:00,
2013-12-25 00:57:00,6.3,-0.5,30.19,NNE,23,4.7,9.6,73,0.00,,,0.00,WUHU216HW,2013-12-25 05:57:00,
2013-12-25 01:03:00,6.3,-0.5,30.19,NNE,23,0.9,9.6,73,0.00,,,0.00,WUHU216HW,2013-12-25 06:03:00,
2013-12-25 01:08:00,6.3,-0.5,30.19,NNE,23,3.4,6.3,73,0.00,,,0.00,WUHU216HW,2013-12-25 06:08:00,
2013-12-25 01:13:00,6.3,-0.9,30.19,NNE,23,2.9,6.3,72,0.00,,,0.00,WUHU216HW,2013-12-25 06:13:00,
2013-12-25 01:18:00,6.3,-0.9,30.20,NNE,23,4.3,6.3,72,0.00,,,0.00,WUHU216HW,2013-12-25 06:18:00,
2013-12-25 01:23:00,6.1,-0.7,30.20,NNE,23,3.1,6.3,73,0.00,,,0.00,WUHU216HW,2013-12-25 06:23:00,
2013-12-25 01:28:00,6.1,-1.1,30.20,NNE,23,1.8,6.7,72,0.00,,,0.00,WUHU216HW,2013-12-25 06:28:00,
2013-12-25 01:33:00,6.1,-1.1,30.20,NNE,23,2.5,6.7,72,0.00,,,0.00,WUHU216HW,2013-12-25 06:33:00,
2013-12-25 01:38:00,5.9,-1.3,30.21,NNE,23,4.7,8.1,72,0.00,,,0.00,WUHU216HW,2013-12-25 06:38:00,
2013-12-25 01:43:00,5.8,-1.4,30.21,NNE,23,2.9,8.1,72,0.00,,,0.00,WUHU216HW,2013-12-25 06:43:00,
2013-12-25 01:48:00,5.6,-1.9,30.22,NNE,23,4.0,6.9,71,0.00,,,0.00,WUHU216HW,2013-12-25 06:48:00,
2013-12-25 01:53:00,5.4,-2.3,30.22,NNE,23,7.6,7.6,70,0.00,,,0.00,WUHU216HW,2013-12-25 06:53:00,
2013-12-25 01:58:00,5.4,-2.1,30.22,NNE,23,1.8,7.6,71,0.00,,,0.00,WUHU216HW,2013-12-25 06:58:00,
2013-12-25 02:03:00,5.2,-2.5,30.23,NNE,23,6.3,7.6,70,0.00,,,0.00,WUHU216HW,2013-12-25 07:03:00,
2013-12-25 02:08:00,5.0,-2.7,30.23,NNE,23,3.4,6.3,70,0.00,,,0.00,WUHU216HW,2013-12-25 07:08:00,
2013-12-25 02:13:00,5.0,-2.4,30.23,NNE,23,0.4,6.3,71,0.00,,,0.00,WUHU216HW,2013-12-25 07:13:00,
2013-12-25 02:18:00,4.9,-2.6,30.23,NNE,23,2.2,3.4,71,0.00,,,0.00,WUHU216HW,2013-12-25 07:18:00,
2013-12-25 02:20:00,4.9,-2.6,30.24,NNE,23,2.5,6.0,71,0.00,,,0.00,WUHU216HW,2013-12-25 07:20:00,
2013-12-25 02:25:00,4.7,-2.7,30.24,NNE,23,0.0,6.0,71,0.00,,,0.00,WUHU216HW,2013-12-25 07:25:00,
2013-12-25 02:30:00,4.7,-2.7,30.24,NNE,23,0.4,3.4,71,0.00,,,0.00,WUHU216HW,2013-12-25 07:30:00,
2013-12-25 02:35:00,4.7,-2.7,30.24,NNE,23,1.1,2.0,71,0.00,,,0.00,WUHU216HW,2013-12-25 07:35:00,
2013-12-25 02:40:00,4.7,-2.7,30.25,NNE,23,2.2,2.2,71,0.00,,,0.00,WUHU216HW,2013-12-25 07:40:00,
2013-12-25 02:45:00,4.7,-2.7,30.25,NNE,23,0.2,2.2,71,0.00,,,0.00,WUHU216HW,2013-12-25 07:45:00,
2013-12-25 02:50:00,4.7,-2.7,30.25,NNE,23,1.1,1.3,71,0.00,,,0.00,WUHU216HW,2013-12-25 07:50:00,
2013-12-25 02:55:00,4.7,-2.7,30.25,NNE,23,0.4,1.8,71,0.00,,,0.00,WUHU216HW,2013-12-25 07:55:00,
2013-12-25 03:00:00,4.5,-2.9,30.25,NNE,23,1.8,1.8,71,0.00,,,0.00,WUHU216HW,2013-12-25 08:00:00,
2013-12-25 03:05:00,4.5,-2.9,30.25,NNE,23,0.4,2.2,71,0.00,,,0.00,WUHU216HW,2013-12-25 08:05:00,
2013-12-25 03:10:00,4.5,-2.9,30.25,NNE,23,2.2,2.2,71,0.00,,,0.00,WUHU216HW,2013-12-25 08:10:00,
2013-12-25 03:15:00,4.3,-3.0,30.26,NNE,23,1.6,4.3,71,0.00,,,0.00,WUHU216HW,2013-12-25 08:15:00,
2013-12-25 03:20:00,4.1,-3.2,30.26,NNE,23,0.4,4.3,71,0.00,,,0.00,WUHU216HW,2013-12-25 08:20:00,
2013-12-25 03:26:00,4.1,-3.2,30.26,NNE,23,1.3,3.6,71,0.00,,,0.00,WUHU216HW,2013-12-25 08:26:00,
2013-12-25 03:30:00,4.1,-3.2,30.27,NNE,23,2.7,6.0,71,0.00,,,0.00,WUHU216HW,2013-12-25 08:30:00,
2013-12-25 03:36:00,4.1,-3.2,30.27,NNE,23,1.1,6.0,71,0.00,,,0.00,WUHU216HW,2013-12-25 08:36:00,
2013-12-25 03:40:00,4.3,-3.0,30.28,NNE,23,0.9,3.6,71,0.00,,,0.00,WUHU216HW,2013-12-25 08:40:00,
2013-12-25 03:46:00,4.3,-3.0,30.28,NNE,23,0.4,3.8,71,0.00,,,0.00,WUHU216HW,2013-12-25 08:46:00,
2013-12-25 03:50:00,4.1,-3.2,30.28,NNE,23,3.4,3.8,71,0.00,,,0.00,WUHU216HW,2013-12-25 08:50:00,
2013-12-25 03:56:00,4.1,-3.2,30.28,NNE,23,0.7,3.4,71,0.00,,,0.00,WUHU216HW,2013-12-25 08:56:00,
2013-12-25 04:01:00,4.3,-2.8,30.29,NNE,23,2.0,3.4,72,0.00,,,0.00,WUHU216HW,2013-12-25 09:01:00,
2013-12-25 04:06:00,4.3,-3.0,30.29,NNE,23,2.0,2.5,71,0.00,,,0.00,WUHU216HW,2013-12-25 09:06:00,
2013-12-25 04:11:00,4.0,-3.4,30.29,NNE,23,3.4,3.4,71,0.00,,,0.00,WUHU216HW,2013-12-25 09:11:00,
2013-12-25 04:16:00,4.0,-3.7,30.29,NNE,23,2.5,4.5,70,0.00,,,0.00,WUHU216HW,2013-12-25 09:16:00,
2013-12-25 04:21:00,3.6,-3.9,30.29,NNE,23,1.8,4.5,70,0.00,,,0.00,WUHU216HW,2013-12-25 09:21:00,
2013-12-25 04:26:00,3.4,-4.5,30.29,NNE,23,3.1,5.4,69,0.00,,,0.00,WUHU216HW,2013-12-25 09:26:00,
2013-12-25 04:31:00,3.2,-4.7,30.30,NNE,23,3.8,5.4,69,0.00,,,0.00,WUHU216HW,2013-12-25 09:31:00,
2013-12-25 04:36:00,3.1,-4.9,30.30,NNE,23,4.5,5.1,69,0.00,,,0.00,WUHU216HW,2013-12-25 09:36:00,
2013-12-25 04:41:00,2.9,-5.0,30.31,NNE,23,1.8,5.1,69,0.00,,,0.00,WUHU216HW,2013-12-25 09:41:00,
2013-12-25 04:46:00,3.1,-4.5,30.31,NNE,23,3.1,4.9,70,0.00,,,0.00,WUHU216HW,2013-12-25 09:46:00,
2013-12-25 04:51:00,2.9,-4.7,30.32,NNE,23,3.4,4.9,70,0.00,,,0.00,WUHU216HW,2013-12-25 09:51:00,
2013-12-25 04:56:00,2.9,-4.7,30.32,NNE,23,2.0,3.4,70,0.00,,,0.00,WUHU216HW,2013-12-25 09:56:00,
2013-12-25 05:01:00,2.9,-4.4,30.32,NNE,23,2.2,3.4,71,0.00,,,0.00,WUHU216HW,2013-12-25 10:01:00,
2013-12-25 05:06:00,2.9,-4.4,30.32,NNE,23,0.4,3.4,71,0.00,,,0.00,WUHU216HW,2013-12-25 10:06:00,
2013-12-25 05:11:00,2.7,-4.6,30.32,NNE,23,0.0,2.5,71,0.00,,,0.00,WUHU216HW,2013-12-25 10:11:00,
2013-12-25 05:16:00,2.7,-4.6,30.33,NNE,23,0.2,2.5,71,0.00,,,0.00,WUHU216HW,2013-12-25 10:16:00,
2013-12-25 05:21:00,2.5,-4.8,30.32,NNE,23,2.9,2.9,71,0.00,,,0.00,WUHU216HW,2013-12-25 10:21:00,
2013-12-25 05:26:00,2.2,-4.9,30.32,NNE,23,1.6,3.4,72,0.00,,,0.00,WUHU216HW,2013-12-25 10:26:00,
2013-12-25 05:31:00,2.2,-4.6,30.33,NNE,23,2.2,3.4,73,0.00,,,0.00,WUHU216HW,2013-12-25 10:31:00,
2013-12-25 05:36:00,1.8,-4.9,30.32,NNE,23,3.1,4.9,73,0.00,,,0.00,WUHU216HW,2013-12-25 10:36:00,
2013-12-25 05:41:00,1.8,-4.9,30.33,NNE,23,1.8,4.9,73,0.00,,,0.00,WUHU216HW,2013-12-25 10:41:00,
2013-12-25 05:46:00,1.8,-4.9,30.33,NNE,23,1.6,4.0,73,0.00,,,0.00,WUHU216HW,2013-12-25 10:46:00,
2013-12-25 05:51:00,1.6,-5.1,30.33,NNE,23,1.3,4.0,73,0.00,,,0.00,WUHU216HW,2013-12-25 10:51:00,
2013-12-25 05:56:00,1.4,-5.3,30.34,NNE,23,0.0,2.5,73,0.00,,,0.00,WUHU216HW,2013-12-25 10:56:00,
2013-12-25 06:01:00,1.6,-5.1,30.35,NNE,23,0.0,1.3,73,0.00,,,0.00,WUHU216HW,2013-12-25 11:01:00,
2013-12-25 06:06:00,1.6,-5.1,30.35,NNE,23,0.4,0.7,73,0.00,,,0.00,WUHU216HW,2013-12-25 11:06:00,
2013-12-25 06:11:00,1.3,-5.5,30.35,NNE,23,1.8,2.2,73,0.00,,,0.00,WUHU216HW,2013-12-25 11:11:00,
2013-12-25 06:16:00,1.1,-5.4,30.36,NNE,23,0.4,3.6,74,0.00,,,0.00,WUHU216HW,2013-12-25 11:16:00,
2013-12-25 06:21:00,1.1,-5.4,30.36,NNE,23,2.7,3.6,74,0.00,,,0.00,WUHU216HW,2013-12-25 11:21:00,
2013-12-25 06:26:00,1.1,-5.4,30.36,NNE,23,0.0,2.7,74,0.00,,,0.00,WUHU216HW,2013-12-25 11:26:00,
2013-12-25 06:31:00,0.9,-5.6,30.36,NNE,23,1.8,2.7,74,0.00,,,0.00,WUHU216HW,2013-12-25 11:31:00,
2013-12-25 06:36:00,0.9,-5.6,30.37,NNE,23,0.4,2.0,74,0.00,,,0.00,WUHU216HW,2013-12-25 11:36:00,
2013-12-25 06:41:00,0.7,-5.8,30.37,NNE,23,0.2,2.0,74,0.00,,,0.00,WUHU216HW,2013-12-25 11:41:00,
2013-12-25 06:46:00,0.7,-5.8,30.37,NNE,23,0.9,2.0,74,0.00,,,0.00,WUHU216HW,2013-12-25 11:46:00,
2013-12-25 06:51:00,0.9,-5.6,30.38,NNE,23,0.9,2.9,74,0.00,,,0.00,WUHU216HW,2013-12-25 11:51:00,
2013-12-25 06:56:00,1.1,-5.4,30.38,NNE,23,0.2,2.9,74,0.00,,,0.00,WUHU216HW,2013-12-25 11:56:00,
2013-12-25 07:01:00,0.9,-5.6,30.38,NNE,23,0.9,1.8,74,0.00,,,0.00,WUHU216HW,2013-12-25 12:01:00,
2013-12-25 07:06:00,0.5,-5.7,30.38,NNE,23,0.4,2.7,75,0.00,,,0.00,WUHU216HW,2013-12-25 12:06:00,
2013-12-25 07:11:00,0.7,-5.5,30.38,NNE,23,0.4,2.7,75,0.00,,,0.00,WUHU216HW,2013-12-25 12:11:00,
2013-12-25 07:16:00,0.7,-5.5,30.38,NNE,23,0.0,0.4,75,0.00,,,0.00,WUHU216HW,2013-12-25 12:16:00,
2013-12-25 07:21:00,0.7,-5.5,30.38,NNE,23,0.0,0.4,75,0.00,,,0.00,WUHU216HW,2013-12-25 12:21:00,
2013-12-25 07:26:00,0.9,-5.3,30.39,NNE,23,0.4,0.4,75,0.00,,,0.00,WUHU216HW,2013-12-25 12:26:00,
2013-12-25 07:31:00,0.9,-5.3,30.39,NNE,23,0.0,0.4,75,0.00,,,0.00,WUHU216HW,2013-12-25 12:31:00,
2013-12-25 07:36:00,1.1,-5.1,30.40,NNE,23,0.0,0.4,75,0.00,,,0.00,WUHU216HW,2013-12-25 12:36:00,
2013-12-25 07:41:00,1.1,-5.1,30.40,NNE,23,0.0,0.0,75,0.00,,,0.00,WUHU216HW,2013-12-25 12:41:00,
2013-12-25 07:46:00,1.1,-5.1,30.40,NNE,23,0.4,0.4,75,0.00,,,0.00,WUHU216HW,2013-12-25 12:46:00,
2013-12-25 07:51:00,0.9,-5.0,30.40,NNE,23,1.1,1.1,76,0.00,,,0.00,WUHU216HW,2013-12-25 12:51:00,
2013-12-25 07:56:00,0.7,-5.2,30.41,NNE,23,0.9,1.1,76,0.00,,,0.00,WUHU216HW,2013-12-25 12:56:00,
2013-12-25 08:01:00,0.7,-5.2,30.41,NNE,23,0.0,1.6,76,0.00,,,0.00,WUHU216HW,2013-12-25 13:01:00,
2013-12-25 08:06:00,0.9,-5.0,30.41,NNE,23,0.2,1.6,76,0.00,,,0.00,WUHU216HW,2013-12-25 13:06:00,
2013-12-25 08:11:00,1.1,-4.6,30.41,NNE,23,0.2,1.8,77,0.00,,,0.00,WUHU216HW,2013-12-25 13:11:00,
2013-12-25 08:16:00,1.1,-4.6,30.42,NNE,23,0.4,1.8,77,0.00,,,0.00,WUHU216HW,2013-12-25 13:16:00,
2013-12-25 08:22:00,1.4,-4.5,30.41,NNE,23,2.2,2.5,76,0.00,,,0.00,WUHU216HW,2013-12-25 13:22:00,
2013-12-25 08:27:00,1.1,-5.1,30.42,NNE,23,0.2,2.5,75,0.00,,,0.00,WUHU216HW,2013-12-25 13:27:00,
2013-12-25 08:32:00,1.3,-4.9,30.42,NNE,23,0.0,2.5,75,0.00,,,0.00,WUHU216HW,2013-12-25 13:32:00,
2013-12-25 08:39:00,2.2,-3.8,30.43,NNE,23,0.4,0.7,76,0.00,,,0.00,WUHU216HW,2013-12-25 13:39:00,
2013-12-25 08:44:00,2.7,-3.2,30.43,NNE,23,1.3,1.6,76,0.00,,,0.00,WUHU216HW,2013-12-25 13:44:00,
2013-12-25 08:50:00,3.1,-2.9,30.42,NNE,23,1.1,2.2,76,0.00,,,0.00,WUHU216HW,2013-12-25 13:50:00,
2013-12-25 08:55:00,3.1,-3.4,30.42,NNE,23,0.2,2.0,74,0.00,,,0.00,WUHU216HW,2013-12-25 13:55:00,
2013-12-25 08:56:00,3.1,-3.4,30.42,NNE,23,0.0,2.0,74,0.00,,,0.00,WUHU216HW,2013-12-25 13:56:00,
2013-12-25 08:57:00,3.1,-3.4,30.42,NNE,23,0.2,1.1,74,0.00,,,0.00,WUHU216HW,2013-12-25 13:57:00,
2013-12-25 08:59:00,3.2,-3.2,30.42,NNE,23,0.0,1.1,74,0.00,,,0.00,WUHU216HW,2013-12-25 13:59:00,
2013-12-25 09:00:00,3.2,-3.2,30.42,NNE,23,0.2,1.1,74,0.00,,,0.00,WUHU216HW,2013-12-25 14:00:00,
2013-12-25 09:02:00,3.4,-3.0,30.42,NNE,23,0.9,1.1,74,0.00,,,0.00,WUHU216HW,2013-12-25 14:02:00,
2013-12-25 09:03:00,3.4,-3.0,30.42,NNE,23,0.9,1.6,74,0.00,,,0.00,WUHU216HW,2013-12-25 14:03:00,
2013-12-25 09:05:00,3.6,-2.9,30.42,NNE,23,1.1,1.6,74,0.00,,,0.00,WUHU216HW,2013-12-25 14:05:00,
2013-12-25 09:06:00,3.6,-2.9,30.42,NNE,23,1.1,1.6,74,0.00,,,0.00,WUHU216HW,2013-12-25 14:06:00,
2013-12-25 09:08:00,3.8,-2.7,30.42,NNE,23,1.1,3.4,74,0.00,,,0.00,WUHU216HW,2013-12-25 14:08:00,
2013-12-25 09:09:00,4.0,-2.5,30.42,NNE,23,0.9,3.4,74,0.00,,,0.00,WUHU216HW,2013-12-25 14:09:00,
2013-12-25 09:11:00,3.8,-2.7,30.42,NNE,23,3.8,3.8,74,0.00,,,0.00,WUHU216HW,2013-12-25 14:11:00,
2013-12-25 09:12:00,3.8,-2.7,30.42,NNE,23,2.9,4.0,74,0.00,,,0.00,WUHU216HW,2013-12-25 14:12:00,
2013-12-25 09:14:00,3.8,-2.7,30.42,NNE,23,2.5,4.0,74,0.00,,,0.00,WUHU216HW,2013-12-25 14:14:00,
2013-12-25 09:15:00,4.0,-2.5,30.42,NNE,23,4.0,4.0,74,0.00,,,0.00,WUHU216HW,2013-12-25 14:15:00,
2013-12-25 09:17:00,4.0,-2.5,30.42,NNE,23,3.4,4.0,74,0.00,,,0.00,WUHU216HW,2013-12-25 14:17:00,
2013-12-25 09:18:00,4.1,-2.2,30.42,NNE,23,3.1,4.0,75,0.00,,,0.00,WUHU216HW,2013-12-25 14:18:00,
2013-12-25 09:20:00,4.3,-2.0,30.42,NNE,23,2.0,4.0,75,0.00,,,0.00,WUHU216HW,2013-12-25 14:20:00,
2013-12-25 09:21:00,4.3,-2.0,30.43,NNE,23,3.1,4.0,75,0.00,,,0.00,WUHU216HW,2013-12-25 14:21:00,
2013-12-25 09:23:00,4.3,-2.2,30.42,NNE,23,4.3,4.7,74,0.00,,,0.00,WUHU216HW,2013-12-25 14:23:00,
2013-12-25 09:24:00,4.5,-2.1,30.43,NNE,23,5.1,5.1,74,0.00,,,0.00,WUHU216HW,2013-12-25 14:24:00,
2013-12-25 09:26:00,4.7,-1.9,30.43,NNE,23,4.0,5.1,74,0.00,,,0.00,WUHU216HW,2013-12-25 14:26:00,
2013-12-25 09:27:00,4.7,-1.9,30.42,NNE,23,4.0,5.1,74,0.00,,,0.00,WUHU216HW,2013-12-25 14:27:00,
2013-12-25 09:29:00,4.7,-1.9,30.43,NNE,23,4.7,5.1,74,0.00,,,0.00,WUHU216HW,2013-12-25 14:29:00,
2013-12-25 09:30:00,4.7,-1.9,30.43,NNE,23,3.4,5.1,74,0.00,,,0.00,WUHU216HW,2013-12-25 14:30:00,
2013-12-25 09:32:00,4.9,-1.7,30.43,NNE,23,4.5,5.1,74,0.00,,,0.00,WUHU216HW,2013-12-25 14:32:00,
2013-12-25 09:33:00,4.9,-1.7,30.43,NNE,23,2.5,5.1,74,0.00,,,0.00,WUHU216HW,2013-12-25 14:33:00,
2013-12-25 09:35:00,5.0,-1.5,30.43,NNE,23,2.2,4.9,74,0.00,,,0.00,WUHU216HW,2013-12-25 14:35:00,
2013-12-25 09:36:00,5.0,-1.8,30.43,NNE,23,0.4,4.9,73,0.00,,,0.00,WUHU216HW,2013-12-25 14:36:00,
2013-12-25 09:38:00,5.0,-1.8,30.43,NNE,23,2.2,4.9,73,0.00,,,0.00,WUHU216HW,2013-12-25 14:38:00,
2013-12-25 09:39:00,5.2,-1.6,30.43,NNE,23,1.1,4.9,73,0.00,,,0.00,WUHU216HW,2013-12-25 14:39:00,
2013-12-25 09:41:00,5.0,-2.2,30.43,NNE,23,0.0,4.9,72,0.00,,,0.00,WUHU216HW,2013-12-25 14:41:00,
2013-12-25 09:42:00,5.0,-2.4,30.43,NNE,23,0.2,4.0,71,0.00,,,0.00,WUHU216HW,2013-12-25 14:42:00,
2013-12-25 09:44:00,5.0,-2.2,30.43,NNE,23,0.7,3.4,72,0.00,,,0.00,WUHU216HW,2013-12-25 14:44:00,
2013-12-25 09:45:00,4.9,-2.2,30.43,NNE,23,4.0,4.0,72,0.00,,,0.00,WUHU216HW,2013-12-25 14:45:00,
2013-12-25 09:47:00,4.9,-2.6,30.43,NNE,23,0.4,4.0,71,0.00,,,0.00,WUHU216HW,2013-12-25 14:47:00,
2013-12-25 09:48:00,4.9,-2.6,30.44,NNE,23,1.6,4.0,71,0.00,,,0.00,WUHU216HW,2013-12-25 14:48:00,
2013-12-25 09:50:00,4.7,-2.7,30.44,NNE,23,0.0,4.0,71,0.00,,,0.00,WUHU216HW,2013-12-25 14:50:00,
2013-12-25 09:51:00,4.9,-2.6,30.44,NNE,23,1.8,4.0,71,0.00,,,0.00,WUHU216HW,2013-12-25 14:51:00,
2013-12-25 09:53:00,4.9,-2.2,30.44,NNE,23,3.4,4.7,72,0.00,,,0.00,WUHU216HW,2013-12-25 14:53:00,
2013-12-25 09:54:00,5.0,-2.2,30.44,NNE,23,1.6,4.7,72,0.00,,,0.00,WUHU216HW,2013-12-25 14:54:00,
2013-12-25 09:56:00,5.2,-2.0,30.44,NNE,23,1.8,4.7,72,0.00,,,0.00,WUHU216HW,2013-12-25 14:56:00,
2013-12-25 09:57:00,5.4,-1.8,30.44,NNE,23,3.4,4.7,72,0.00,,,0.00,WUHU216HW,2013-12-25 14:57:00,
2013-12-25 09:59:00,5.4,-1.8,30.44,NNE,23,2.5,4.7,72,0.00,,,0.00,WUHU216HW,2013-12-25 14:59:00,
2013-12-25 10:00:00,5.6,-1.6,30.44,NNE,23,0.9,4.7,72,0.00,,,0.00,WUHU216HW,2013-12-25 15:00:00,
2013-12-25 10:02:00,5.8,-1.4,30.44,NNE,23,1.6,4.7,72,0.00,,,0.00,WUHU216HW,2013-12-25 15:02:00,
2013-12-25 10:03:00,5.9,-1.3,30.44,NNE,23,0.4,4.0,72,0.00,,,0.00,WUHU216HW,2013-12-25 15:03:00,
2013-12-25 10:05:00,5.9,-1.3,30.44,NNE,23,1.6,4.0,72,0.00,,,0.00,WUHU216HW,2013-12-25 15:05:00,
2013-12-25 10:06:00,6.1,-1.1,30.43,NNE,23,0.9,4.0,72,0.00,,,0.00,WUHU216HW,2013-12-25 15:06:00,
2013-12-25 10:08:00,6.1,-1.1,30.43,NNE,23,1.3,4.0,72,0.00,,,0.00,WUHU216HW,2013-12-25 15:08:00,
2013-12-25 10:09:00,6.3,-0.9,30.43,NNE,23,2.0,2.9,72,0.00,,,0.00,WUHU216HW,2013-12-25 15:09:00,
2013-12-25 10:11:00,6.3,-0.9,30.43,NNE,23,2.0,2.5,72,0.00,,,0.00,WUHU216HW,2013-12-25 15:11:00,
2013-12-25 10:12:00,6.5,-0.7,30.43,NNE,23,1.1,2.9,72,0.00,,,0.00,WUHU216HW,2013-12-25 15:12:00,
2013-12-25 10:14:00,6.5,-0.7,30.43,NNE,23,0.4,2.9,72,0.00,,,0.00,WUHU216HW,2013-12-25 15:14:00,
2013-12-25 10:15:00,6.5,-0.7,30.43,NNE,23,0.9,2.9,72,0.00,,,0.00,WUHU216HW,2013-12-25 15:15:00,
2013-12-25 10:17:00,6.7,-0.5,30.43,NNE,23,1.3,2.9,72,0.00,,,0.00,WUHU216HW,2013-12-25 15:17:00,
2013-12-25 10:18:00,6.8,-0.4,30.43,NNE,23,0.2,2.9,72,0.00,,,0.00,WUHU216HW,2013-12-25 15:18:00,
2013-12-25 10:20:00,6.7,-0.5,30.43,NNE,23,1.1,2.9,72,0.00,,,0.00,WUHU216HW,2013-12-25 15:20:00,
2013-12-25 10:21:00,6.8,-0.4,30.43,NNE,23,0.2,2.9,72,0.00,,,0.00,WUHU216HW,2013-12-25 15:21:00,
2013-12-25 10:23:00,6.8,-0.4,30.43,NNE,23,1.3,2.2,72,0.00,,,0.00,WUHU216HW,2013-12-25 15:23:00,
2013-12-25 10:24:00,7.0,-0.4,30.43,NNE,23,2.2,2.2,71,0.00,,,0.00,WUHU216HW,2013-12-25 15:24:00,
2013-12-25 10:26:00,7.2,-0.3,30.43,NNE,23,3.8,4.7,71,0.00,,,0.00,WUHU216HW,2013-12-25 15:26:00,
2013-12-25 10:27:00,7.0,-1.1,30.42,NNE,23,0.4,4.7,69,0.00,,,0.00,WUHU216HW,2013-12-25 15:27:00,
2013-12-25 10:29:00,6.8,-1.5,30.42,NNE,23,1.8,4.7,68,0.00,,,0.00,WUHU216HW,2013-12-25 15:29:00,
2013-12-25 10:30:00,6.8,-1.5,30.42,NNE,23,1.1,4.7,68,0.00,,,0.00,WUHU216HW,2013-12-25 15:30:00,
2013-12-25 10:32:00,6.8,-1.5,30.42,NNE,23,5.1,5.1,68,0.00,,,0.00,WUHU216HW,2013-12-25 15:32:00,
2013-12-25 10:33:00,6.7,-2.1,30.42,NNE,23,2.2,5.1,67,0.00,,,0.00,WUHU216HW,2013-12-25 15:33:00,
2013-12-25 10:35:00,6.5,-2.2,30.42,NNE,23,0.2,5.1,67,0.00,,,0.00,WUHU216HW,2013-12-25 15:35:00,
2013-12-25 10:36:00,6.3,-2.4,30.42,NNE,23,1.1,5.1,67,0.00,,,0.00,WUHU216HW,2013-12-25 15:36:00,
2013-12-25 10:38:00,6.1,-2.2,30.42,NNE,23,2.5,5.1,68,0.00,,,0.00,WUHU216HW,2013-12-25 15:38:00,
2013-12-25 10:39:00,6.1,-2.2,30.42,NNE,23,1.1,5.1,68,0.00,,,0.00,WUHU216HW,2013-12-25 15:39:00,
2013-12-25 10:41:00,6.1,-2.2,30.41,NNE,23,1.3,5.1,68,0.00,,,0.00,WUHU216HW,2013-12-25 15:41:00,
2013-12-25 10:42:00,6.3,-1.8,30.41,NNE,23,1.1,2.5,69,0.00,,,0.00,WUHU216HW,2013-12-25 15:42:00,
2013-12-25 10:44:00,6.5,-1.6,30.41,NNE,23,0.2,2.5,69,0.00,,,0.00,WUHU216HW,2013-12-25 15:44:00,
2013-12-25 10:45:00,6.7,-1.4,30.41,NNE,23,0.0,2.5,69,0.00,,,0.00,WUHU216HW,2013-12-25 15:45:00,
2013-12-25 10:47:00,6.8,-0.9,30.41,NNE,23,1.8,2.5,70,0.00,,,0.00,WUHU216HW,2013-12-25 15:47:00,
2013-12-25 10:48:00,6.8,-1.3,30.41,NNE,23,3.1,4.0,69,0.00,,,0.00,WUHU216HW,2013-12-25 15:48:00,
2013-12-25 10:50:00,7.0,-0.7,30.41,NNE,23,4.0,4.5,70,0.00,,,0.00,WUHU216HW,2013-12-25 15:50:00,
2013-12-25 10:51:00,7.2,-0.5,30.41,NNE,23,4.7,4.7,70,0.00,,,0.00,WUHU216HW,2013-12-25 15:51:00,
2013-12-25 10:53:00,7.2,-0.5,30.41,NNE,23,2.9,4.7,70,0.00,,,0.00,WUHU216HW,2013-12-25 15:53:00,
2013-12-25 10:54:00,7.4,-0.4,30.41,NNE,23,3.4,4.7,70,0.00,,,0.00,WUHU216HW,2013-12-25 15:54:00,
2013-12-25 10:56:00,7.6,-0.2,30.41,NNE,23,4.0,4.7,70,0.00,,,0.00,WUHU216HW,2013-12-25 15:56:00,
2013-12-25 10:57:00,7.6,-0.2,30.41,NNE,23,1.1,4.7,70,0.00,,,0.00,WUHU216HW,2013-12-25 15:57:00,
2013-12-25 10:59:00,7.6,-0.2,30.41,NNE,23,1.1,4.7,70,0.00,,,0.00,WUHU216HW,2013-12-25 15:59:00,
2013-12-25 11:00:00,7.7,0.0,30.41,NNE,23,4.0,4.7,70,0.00,,,0.00,WUHU216HW,2013-12-25 16:00:00,
2013-12-25 11:02:00,7.7,0.0,30.41,NNE,23,0.9,4.7,70,0.00,,,0.00,WUHU216HW,2013-12-25 16:02:00,
2013-12-25 11:03:00,7.9,0.2,30.41,NNE,23,4.9,4.9,70,0.00,,,0.00,WUHU216HW,2013-12-25 16:03:00,
2013-12-25 11:05:00,7.9,0.2,30.41,NNE,23,2.5,4.9,70,0.00,,,0.00,WUHU216HW,2013-12-25 16:05:00,
2013-12-25 11:06:00,7.9,0.2,30.41,NNE,23,0.0,4.9,70,0.00,,,0.00,WUHU216HW,2013-12-25 16:06:00,
2013-12-25 11:08:00,7.9,0.2,30.41,NNE,23,1.1,4.9,70,0.00,,,0.00,WUHU216HW,2013-12-25 16:08:00,
2013-12-25 11:09:00,7.9,0.2,30.41,NNE,23,1.8,4.9,70,0.00,,,0.00,WUHU216HW,2013-12-25 16:09:00,
2013-12-25 11:11:00,7.9,0.2,30.41,NNE,23,0.4,4.9,70,0.00,,,0.00,WUHU216HW,2013-12-25 16:11:00,
2013-12-25 11:12:00,7.9,-0.2,30.41,NNE,23,1.8,4.9,69,0.00,,,0.00,WUHU216HW,2013-12-25 16:12:00,
2013-12-25 11:14:00,7.9,-0.4,30.41,NNE,23,1.1,3.1,68,0.00,,,0.00,WUHU216HW,2013-12-25 16:14:00,
2013-12-25 11:15:00,8.1,-0.3,30.41,NNE,23,2.5,2.7,68,0.00,,,0.00,WUHU216HW,2013-12-25 16:15:00,
2013-12-25 11:17:00,8.3,-0.2,30.41,NNE,23,1.8,2.7,68,0.00,,,0.00,WUHU216HW,2013-12-25 16:17:00,
2013-12-25 11:18:00,8.3,0.2,30.40,NNE,23,2.9,2.9,69,0.00,,,0.00,WUHU216HW,2013-12-25 16:18:00,
2013-12-25 11:20:00,8.3,0.2,30.40,NNE,23,4.0,4.9,69,0.00,,,0.00,WUHU216HW,2013-12-25 16:20:00,
2013-12-25 11:21:00,8.3,0.2,30.40,NNE,23,4.0,4.9,69,0.00,,,0.00,WUHU216HW,2013-12-25 16:21:00,
2013-12-25 11:23:00,8.3,0.2,30.40,NNE,23,3.1,4.9,69,0.00,,,0.00,WUHU216HW,2013-12-25 16:23:00,
2013-12-25 11:24:00,8.5,0.4,30.40,NNE,23,2.2,4.9,69,0.00,,,0.00,WUHU216HW,2013-12-25 16:24:00,
2013-12-25 11:26:00,8.6,0.5,30.40,NNE,23,1.1,4.9,69,0.00,,,0.00,WUHU216HW,2013-12-25 16:26:00,
2013-12-25 11:27:00,8.6,0.5,30.40,NNE,23,2.5,4.9,69,0.00,,,0.00,WUHU216HW,2013-12-25 16:27:00,
2013-12-25 11:29:00,8.6,0.5,30.40,NNE,23,1.8,4.9,69,0.00,,,0.00,WUHU216HW,2013-12-25 16:29:00,
2013-12-25 11:30:00,8.8,0.7,30.40,NNE,23,2.5,4.3,69,0.00,,,0.00,WUHU216HW,2013-12-25 16:30:00,
2013-12-25 11:32:00,8.6,0.5,30.40,NNE,23,1.6,3.4,69,0.00,,,0.00,WUHU216HW,2013-12-25 16:32:00,
2013-12-25 11:33:00,8.6,0.5,30.40,NNE,23,1.1,2.7,69,0.00,,,0.00,WUHU216HW,2013-12-25 16:33:00,
2013-12-25 11:35:00,8.6,0.5,30.40,NNE,23,1.8,2.7,69,0.00,,,0.00,WUHU216HW,2013-12-25 16:35:00,
2013-12-25 11:36:00,8.6,0.5,30.41,NNE,23,3.4,3.4,69,0.00,,,0.00,WUHU216HW,2013-12-25 16:36:00,
2013-12-25 11:38:00,8.8,0.7,30.40,NNE,23,2.5,4.3,69,0.00,,,0.00,WUHU216HW,2013-12-25 16:38:00,
2013-12-25 11:39:00,9.0,0.5,30.40,NNE,23,2.5,4.3,68,0.00,,,0.00,WUHU216HW,2013-12-25 16:39:00,
2013-12-25 11:41:00,9.0,0.5,30.40,NNE,23,2.5,4.3,68,0.00,,,0.00,WUHU216HW,2013-12-25 16:41:00,
2013-12-25 11:42:00,9.2,0.7,30.40,NNE,23,5.4,5.4,68,0.00,,,0.00,WUHU216HW,2013-12-25 16:42:00,
2013-12-25 11:44:00,9.4,0.9,30.41,NNE,23,4.0,5.4,68,0.00,,,0.00,WUHU216HW,2013-12-25 16:44:00,
2013-12-25 11:45:00,9.4,0.9,30.41,NNE,23,0.7,5.4,68,0.00,,,0.00,WUHU216HW,2013-12-25 16:45:00,
2013-12-25 11:47:00,9.4,0.9,30.40,NNE,23,4.7,5.4,68,0.00,,,0.00,WUHU216HW,2013-12-25 16:47:00,
2013-12-25 11:48:00,9.5,1.1,30.40,NNE,23,2.2,5.4,68,0.00,,,0.00,WUHU216HW,2013-12-25 16:48:00,
2013-12-25 11:50:00,9.7,1.2,30.40,NNE,23,0.9,5.4,68,0.00,,,0.00,WUHU216HW,2013-12-25 16:50:00,
2013-12-25 11:51:00,9.7,1.2,30.40,NNE,23,1.8,5.4,68,0.00,,,0.00,WUHU216HW,2013-12-25 16:51:00,
2013-12-25 11:53:00,9.7,1.2,30.40,NNE,23,2.5,5.4,68,0.00,,,0.00,WUHU216HW,2013-12-25 16:53:00,
2013-12-25 11:54:00,9.9,1.4,30.40,NNE,23,3.1,5.1,68,0.00,,,0.00,WUHU216HW,2013-12-25 16:54:00,
2013-12-25 11:56:00,9.9,1.4,30.40,NNE,23,2.5,5.1,68,0.00,,,0.00,WUHU216HW,2013-12-25 16:56:00,
2013-12-25 11:57:00,10.1,1.5,30.40,NNE,23,1.6,5.1,68,0.00,,,0.00,WUHU216HW,2013-12-25 16:57:00,
2013-12-25 11:59:00,10.1,1.5,30.39,NNE,23,1.1,5.1,68,0.00,,,0.00,WUHU216HW,2013-12-25 16:59:00,
2013-12-25 12:00:00,10.3,1.7,30.39,NNE,23,1.1,5.1,68,0.00,,,0.00,WUHU216HW,2013-12-25 17:00:00,
2013-12-25 12:02:00,10.4,1.5,30.39,NNE,23,1.6,4.0,67,0.00,,,0.00,WUHU216HW,2013-12-25 17:02:00,
2013-12-25 12:03:00,10.3,0.4,30.40,NNE,23,2.9,3.6,64,0.00,,,0.00,WUHU216HW,2013-12-25 17:03:00,
2013-12-25 12:05:00,10.1,0.3,30.40,NNE,23,2.0,3.6,64,0.00,,,0.00,WUHU216HW,2013-12-25 17:05:00,
2013-12-25 12:06:00,9.9,0.1,30.40,NNE,23,4.5,4.5,64,0.00,,,0.00,WUHU216HW,2013-12-25 17:06:00,
2013-12-25 12:08:00,9.9,0.1,30.40,NNE,23,2.9,4.5,64,0.00,,,0.00,WUHU216HW,2013-12-25 17:08:00,
2013-12-25 12:09:00,9.7,-0.1,30.40,NNE,23,2.5,4.5,64,0.00,,,0.00,WUHU216HW,2013-12-25 17:09:00,
2013-12-25 12:11:00,9.7,-0.1,30.40,NNE,23,3.1,4.5,64,0.00,,,0.00,WUHU216HW,2013-12-25 17:11:00,
2013-12-25 12:12:00,9.7,-0.1,30.40,NNE,23,0.7,4.5,64,0.00,,,0.00,WUHU216HW,2013-12-25 17:12:00,
2013-12-25 12:14:00,9.7,-0.1,30.40,NNE,23,1.6,4.5,64,0.00,,,0.00,WUHU216HW,2013-12-25 17:14:00,
2013-12-25 12:15:00,9.7,-0.4,30.39,NNE,23,4.0,4.5,63,0.00,,,0.00,WUHU216HW,2013-12-25 17:15:00,
2013-12-25 12:17:00,9.7,-0.1,30.39,NNE,23,2.0,4.7,64,0.00,,,0.00,WUHU216HW,2013-12-25 17:17:00,
2013-12-25 12:18:00,9.7,-0.1,30.39,NNE,23,0.0,4.7,64,0.00,,,0.00,WUHU216HW,2013-12-25 17:18:00,
2013-12-25 12:20:00,9.7,-0.1,30.39,NNE,23,0.0,4.7,64,0.00,,,0.00,WUHU216HW,2013-12-25 17:20:00,
2013-12-25 12:21:00,9.9,0.1,30.39,NNE,23,0.4,4.7,64,0.00,,,0.00,WUHU216HW,2013-12-25 17:21:00,
2013-12-25 12:23:00,10.1,0.3,30.39,NNE,23,1.1,4.7,64,0.00,,,0.00,WUHU216HW,2013-12-25 17:23:00,
2013-12-25 12:24:00,10.1,0.3,30.39,NNE,23,0.4,4.7,64,0.00,,,0.00,WUHU216HW,2013-12-25 17:24:00,
2013-12-25 12:25:00,10.3,0.4,30.39,NNE,23,3.1,4.7,64,0.00,,,0.00,WUHU216HW,2013-12-25 17:25:00,
2013-12-25 12:27:00,10.4,0.9,30.39,NNE,23,0.7,3.6,65,0.00,,,0.00,WUHU216HW,2013-12-25 17:27:00,
2013-12-25 12:29:00,10.4,0.5,30.39,NNE,23,1.1,3.6,64,0.00,,,0.00,WUHU216HW,2013-12-25 17:29:00,
2013-12-25 12:30:00,10.6,1.1,30.39,NNE,23,0.2,3.6,65,0.00,,,0.00,WUHU216HW,2013-12-25 17:30:00,
2013-12-25 12:31:00,10.8,1.3,30.39,NNE,23,2.5,3.6,65,0.00,,,0.00,WUHU216HW,2013-12-25 17:31:00,
2013-12-25 12:33:00,10.8,1.5,30.40,NNE,23,0.2,3.6,66,0.00,,,0.00,WUHU216HW,2013-12-25 17:33:00,
2013-12-25 12:34:00,11.0,1.7,30.40,NNE,23,4.3,4.3,66,0.00,,,0.00,WUHU216HW,2013-12-25 17:34:00,
2013-12-25 12:36:00,11.2,1.9,30.40,NNE,23,4.3,4.3,66,0.00,,,0.00,WUHU216HW,2013-12-25 17:36:00,
2013-12-25 12:37:00,11.2,1.9,30.40,NNE,23,4.0,5.6,66,0.00,,,0.00,WUHU216HW,2013-12-25 17:37:00,
2013-12-25 12:39:00,11.3,2.1,30.40,NNE,23,4.0,5.6,66,0.00,,,0.00,WUHU216HW,2013-12-25 17:39:00,
2013-12-25 12:49:00,11.7,1.8,30.41,NNE,23,2.0,5.1,64,0.00,,,0.00,WUHU216HW,2013-12-25 17:49:00,
2013-12-25 12:54:00,11.5,1.6,30.41,NNE,23,1.3,2.5,64,0.00,,,0.00,WUHU216HW,2013-12-25 17:54:00,
2013-12-25 12:59:00,11.9,2.3,30.41,NNE,23,3.4,4.0,65,0.00,,,0.00,WUHU216HW,2013-12-25 17:59:00,
2013-12-25 13:04:00,12.2,2.6,30.40,NNE,23,1.1,4.0,65,0.00,,,0.00,WUHU216HW,2013-12-25 18:04:00,
2013-12-25 13:09:00,12.1,2.8,30.40,NNE,23,2.5,3.4,66,0.00,,,0.00,WUHU216HW,2013-12-25 18:09:00,
2013-12-25 13:14:00,12.6,3.3,30.40,NNE,23,2.5,3.6,66,0.00,,,0.00,WUHU216HW,2013-12-25 18:14:00,
2013-12-25 13:19:00,12.6,2.3,30.40,NNE,23,4.0,4.0,63,0.00,,,0.00,WUHU216HW,2013-12-25 18:19:00,
2013-12-25 13:24:00,11.9,1.3,30.39,NNE,23,4.5,5.8,62,0.00,,,0.00,WUHU216HW,2013-12-25 18:24:00,
2013-12-25 13:29:00,11.5,0.9,30.38,NNE,23,2.2,5.8,62,0.00,,,0.00,WUHU216HW,2013-12-25 18:29:00,
2013-12-25 13:34:00,11.5,0.9,30.38,NNE,23,4.7,6.3,62,0.00,,,0.00,WUHU216HW,2013-12-25 18:34:00,
2013-12-25 13:39:00,11.9,0.9,30.38,NNE,23,3.4,6.3,61,0.00,,,0.00,WUHU216HW,2013-12-25 18:39:00,
2013-12-25 13:44:00,11.9,0.9,30.38,NNE,23,1.6,5.4,61,0.00,,,0.00,WUHU216HW,2013-12-25 18:44:00,
2013-12-25 13:49:00,11.9,0.9,30.38,NNE,23,2.5,4.9,61,0.00,,,0.00,WUHU216HW,2013-12-25 18:49:00,
2013-12-25 13:54:00,12.4,1.8,30.37,NNE,23,0.9,4.9,62,0.00,,,0.00,WUHU216HW,2013-12-25 18:54:00,
2013-12-25 13:59:00,12.6,2.3,30.38,NNE,23,1.1,4.0,63,0.00,,,0.00,WUHU216HW,2013-12-25 18:59:00,
2013-12-25 14:04:00,13.0,2.6,30.39,NNE,23,0.9,2.5,63,0.00,,,0.00,WUHU216HW,2013-12-25 19:04:00,
2013-12-25 14:09:00,13.3,3.3,30.38,NNE,23,0.2,2.2,64,0.00,,,0.00,WUHU216HW,2013-12-25 19:09:00,
2013-12-25 14:14:00,13.7,3.7,30.39,NNE,23,0.0,2.2,64,0.00,,,0.00,WUHU216HW,2013-12-25 19:14:00,
2013-12-25 14:19:00,13.7,3.3,30.39,NNE,23,0.0,2.2,63,0.00,,,0.00,WUHU216HW,2013-12-25 19:19:00,
2013-12-25 14:24:00,13.7,3.7,30.38,NNE,23,1.1,1.1,64,0.00,,,0.00,WUHU216HW,2013-12-25 19:24:00,
2013-12-25 14:29:00,13.5,3.2,30.38,NNE,23,1.3,3.1,63,0.00,,,0.00,WUHU216HW,2013-12-25 19:29:00,
2013-12-25 14:34:00,13.7,3.3,30.38,NNE,23,0.7,3.1,63,0.00,,,0.00,WUHU216HW,2013-12-25 19:34:00,
2013-12-25 14:39:00,13.5,3.2,30.39,NNE,23,0.2,1.8,63,0.00,,,0.00,WUHU216HW,2013-12-25 19:39:00,
2013-12-25 14:44:00,13.9,3.9,30.39,NNE,23,1.6,1.6,64,0.00,,,0.00,WUHU216HW,2013-12-25 19:44:00,
2013-12-25 14:49:00,14.0,3.7,30.39,NNE,23,1.1,3.8,63,0.00,,,0.00,WUHU216HW,2013-12-25 19:49:00,
2013-12-25 14:54:00,14.4,4.4,30.38,NNE,23,0.2,3.8,64,0.00,,,0.00,WUHU216HW,2013-12-25 19:54:00,
2013-12-25 14:59:00,14.6,4.6,30.38,NNE,23,0.4,3.6,64,0.00,,,0.00,WUHU216HW,2013-12-25 19:59:00,
2013-12-25 15:04:00,14.6,4.6,30.38,NNE,23,0.2,1.3,64,0.00,,,0.00,WUHU216HW,2013-12-25 20:04:00,
2013-12-25 15:09:00,14.8,4.7,30.37,NNE,23,0.0,1.6,64,0.00,,,0.00,WUHU216HW,2013-12-25 20:09:00,
2013-12-25 15:14:00,14.8,4.4,30.37,NNE,23,0.9,1.6,63,0.00,,,0.00,WUHU216HW,2013-12-25 20:14:00,
2013-12-25 15:19:00,14.2,2.9,30.37,NNE,23,1.8,2.9,60,0.00,,,0.00,WUHU216HW,2013-12-25 20:19:00,
2013-12-25 15:24:00,13.7,2.0,30.36,NNE,23,0.4,3.4,59,0.00,,,0.00,WUHU216HW,2013-12-25 20:24:00,
2013-12-25 15:29:00,13.9,2.5,30.37,NNE,23,2.9,3.4,60,0.00,,,0.00,WUHU216HW,2013-12-25 20:29:00,
2013-12-25 15:34:00,14.0,3.1,30.36,NNE,23,0.4,2.9,61,0.00,,,0.00,WUHU216HW,2013-12-25 20:34:00,
2013-12-25 15:39:00,14.0,2.7,30.37,NNE,23,1.1,2.5,60,0.00,,,0.00,WUHU216HW,2013-12-25 20:39:00,
2013-12-25 15:44:00,14.0,3.1,30.38,NNE,23,1.3,2.0,61,0.00,,,0.00,WUHU216HW,2013-12-25 20:44:00,
2013-12-25 15:49:00,14.0,2.7,30.38,NNE,23,1.1,2.2,60,0.00,,,0.00,WUHU216HW,2013-12-25 20:49:00,
2013-12-25 15:54:00,14.0,3.1,30.39,NNE,23,0.9,2.5,61,0.00,,,0.00,WUHU216HW,2013-12-25 20:54:00,
2013-12-25 15:59:00,13.9,3.3,30.39,NNE,23,0.4,2.5,62,0.00,,,0.00,WUHU216HW,2013-12-25 20:59:00,
2013-12-25 16:04:00,13.9,3.3,30.40,NNE,23,0.2,1.3,62,0.00,,,0.00,WUHU216HW,2013-12-25 21:04:00,
2013-12-25 16:09:00,13.5,2.9,30.40,NNE,23,0.2,0.9,62,0.00,,,0.00,WUHU216HW,2013-12-25 21:09:00,
2013-12-25 16:14:00,13.3,3.0,30.40,NNE,23,0.2,1.1,63,0.00,,,0.00,WUHU216HW,2013-12-25 21:14:00,
2013-12-25 16:19:00,13.1,3.2,30.40,NNE,23,0.0,1.1,64,0.00,,,0.00,WUHU216HW,2013-12-25 21:19:00,
2013-12-25 16:24:00,12.8,2.8,30.41,NNE,23,0.0,0.4,64,0.00,,,0.00,WUHU216HW,2013-12-25 21:24:00,
2013-12-25 16:29:00,12.6,3.0,30.41,NNE,23,0.0,0.0,65,0.00,,,0.00,WUHU216HW,2013-12-25 21:29:00,
2013-12-25 16:34:00,12.2,2.6,30.41,NNE,23,0.0,0.0,65,0.00,,,0.00,WUHU216HW,2013-12-25 21:34:00,
2013-12-25 16:39:00,12.1,2.8,30.41,NNE,23,0.4,0.4,66,0.00,,,0.00,WUHU216HW,2013-12-25 21:39:00,
2013-12-25 16:44:00,11.9,2.3,30.41,NNE,23,0.0,0.4,65,0.00,,,0.00,WUHU216HW,2013-12-25 21:44:00,
2013-12-25 16:49:00,11.3,2.1,30.41,NNE,23,0.0,0.4,66,0.00,,,0.00,WUHU216HW,2013-12-25 21:49:00,
2013-12-25 16:54:00,11.2,2.3,30.41,NNE,23,0.4,0.4,67,0.00,,,0.00,WUHU216HW,2013-12-25 21:54:00,
2013-12-25 16:59:00,10.4,1.9,30.41,NNE,23,0.4,1.1,68,0.00,,,0.00,WUHU216HW,2013-12-25 21:59:00,
2013-12-25 17:04:00,10.3,1.7,30.41,NNE,23,0.0,1.1,68,0.00,,,0.00,WUHU216HW,2013-12-25 22:04:00,
2013-12-25 17:09:00,9.7,1.2,30.40,NNE,23,0.0,0.4,68,0.00,,,0.00,WUHU216HW,2013-12-25 22:09:00,
2013-12-25 17:14:00,9.4,1.2,30.40,NNE,23,0.2,0.4,69,0.00,,,0.00,WUHU216HW,2013-12-25 22:14:00,
2013-12-25 17:19:00,9.0,0.9,30.40,NNE,23,1.6,1.6,69,0.00,,,0.00,WUHU216HW,2013-12-25 22:19:00,
2013-12-25 17:24:00,8.3,0.5,30.41,NNE,23,0.0,1.8,70,0.00,,,0.00,WUHU216HW,2013-12-25 22:24:00,
2013-12-25 17:29:00,8.1,0.4,30.41,NNE,23,0.0,1.8,70,0.00,,,0.00,WUHU216HW,2013-12-25 22:29:00,
2013-12-25 17:34:00,7.9,0.2,30.41,NNE,23,0.4,1.3,70,0.00,,,0.00,WUHU216HW,2013-12-25 22:34:00,
2013-12-25 17:39:00,7.7,0.0,30.41,NNE,23,0.0,0.4,70,0.00,,,0.00,WUHU216HW,2013-12-25 22:39:00,
2013-12-25 17:44:00,7.4,-0.1,30.41,NNE,23,0.0,1.6,71,0.00,,,0.00,WUHU216HW,2013-12-25 22:44:00,
2013-12-25 17:49:00,7.2,-0.3,30.41,NNE,23,0.7,1.6,71,0.00,,,0.00,WUHU216HW,2013-12-25 22:49:00,
2013-12-25 17:54:00,7.2,0.0,30.41,NNE,23,0.2,0.7,72,0.00,,,0.00,WUHU216HW,2013-12-25 22:54:00,
2013-12-25 17:59:00,7.0,-0.2,30.40,NNE,23,0.0,0.7,72,0.00,,,0.00,WUHU216HW,2013-12-25 22:59:00,
2013-12-25 18:04:00,7.0,-0.2,30.40,NNE,23,0.0,0.4,72,0.00,,,0.00,WUHU216HW,2013-12-25 23:04:00,
2013-12-25 18:09:00,6.8,0.0,30.40,NNE,23,0.0,0.7,73,0.00,,,0.00,WUHU216HW,2013-12-25 23:09:00,
2013-12-25 18:14:00,6.5,0.2,30.40,NNE,23,0.2,2.9,75,0.00,,,0.00,WUHU216HW,2013-12-25 23:14:00,
2013-12-25 18:19:00,6.3,-0.3,30.40,NNE,23,0.0,2.9,74,0.00,,,0.00,WUHU216HW,2013-12-25 23:19:00,
2013-12-25 18:24:00,6.5,-0.1,30.40,NNE,23,0.0,0.2,74,0.00,,,0.00,WUHU216HW,2013-12-25 23:24:00,
2013-12-25 18:29:00,6.7,0.4,30.40,NNE,23,0.0,0.4,75,0.00,,,0.00,WUHU216HW,2013-12-25 23:29:00,
2013-12-25 18:34:00,6.7,0.4,30.40,NNE,23,0.0,0.4,75,0.00,,,0.00,WUHU216HW,2013-12-25 23:34:00,
2013-12-25 18:39:00,6.7,0.4,30.40,NNE,23,0.0,0.7,75,0.00,,,0.00,WUHU216HW,2013-12-25 23:39:00,
2013-12-25 18:44:00,6.7,0.4,30.40,NNE,23,0.7,0.7,75,0.00,,,0.00,WUHU216HW,2013-12-25 23:44:00,
2013-12-25 18:49:00,6.7,0.4,30.40,NNE,23,0.0,0.7,75,0.00,,,0.00,WUHU216HW,2013-12-25 23:49:00,
2013-12-25 18:54:00,6.8,0.5,30.40,NNE,23,0.0,0.7,75,0.00,,,0.00,WUHU216HW,2013-12-25 23:54:00,
2013-12-25 18:59:00,6.8,0.5,30.40,NNE,23,0.0,0.0,75,0.00,,,0.00,WUHU216HW,2013-12-25 23:59:00,
2013-12-25 19:04:00,7.2,1.2,30.40,NNE,23,0.7,0.7,76,0.00,,,0.00,WUHU216HW,2013-12-26 00:04:00,
2013-12-25 19:09:00,7.2,1.2,30.40,NNE,23,0.0,0.7,76,0.00,,,0.00,WUHU216HW,2013-12-26 00:09:00,
2013-12-25 19:14:00,7.2,1.2,30.40,NNE,23,0.4,0.7,76,0.00,,,0.00,WUHU216HW,2013-12-26 00:14:00,
2013-12-25 19:19:00,7.4,1.4,30.40,NNE,23,0.9,0.9,76,0.00,,,0.00,WUHU216HW,2013-12-26 00:19:00,
2013-12-25 19:24:00,7.6,1.8,30.39,NNE,23,0.2,0.9,77,0.00,,,0.00,WUHU216HW,2013-12-26 00:24:00,
2013-12-25 19:29:00,7.7,2.0,30.39,NNE,23,0.2,0.9,77,0.00,,,0.00,WUHU216HW,2013-12-26 00:29:00,
2013-12-25 19:34:00,7.7,2.4,30.39,NNE,23,0.0,0.4,78,0.00,,,0.00,WUHU216HW,2013-12-26 00:34:00,
2013-12-25 19:39:00,7.6,1.8,30.40,NNE,23,0.4,0.7,77,0.00,,,0.00,WUHU216HW,2013-12-26 00:39:00,
2013-12-25 19:44:00,7.6,1.8,30.40,NNE,23,0.7,1.1,77,0.00,,,0.00,WUHU216HW,2013-12-26 00:44:00,
2013-12-25 19:49:00,7.2,1.4,30.39,NNE,23,1.8,1.8,77,0.00,,,0.00,WUHU216HW,2013-12-26 00:49:00,
2013-12-25 19:54:00,6.7,1.3,30.39,NNE,23,0.0,1.8,78,0.00,,,0.00,WUHU216HW,2013-12-26 00:54:00,
2013-12-25 19:59:00,6.5,1.1,30.39,NNE,23,0.7,1.8,78,0.00,,,0.00,WUHU216HW,2013-12-26 00:59:00,
2013-12-25 20:04:00,6.5,1.1,30.39,NNE,23,0.0,1.1,78,0.00,,,0.00,WUHU216HW,2013-12-26 01:04:00,
2013-12-25 20:09:00,6.3,0.9,30.39,NNE,23,0.7,1.8,78,0.00,,,0.00,WUHU216HW,2013-12-26 01:09:00,
2013-12-25 20:14:00,6.3,0.9,30.39,NNE,23,0.0,1.8,78,0.00,,,0.00,WUHU216HW,2013-12-26 01:14:00,
2013-12-25 20:19:00,6.5,1.1,30.40,NNE,23,0.0,0.7,78,0.00,,,0.00,WUHU216HW,2013-12-26 01:19:00,
2013-12-25 20:24:00,6.8,1.5,30.40,NNE,23,0.7,0.7,78,0.00,,,0.00,WUHU216HW,2013-12-26 01:24:00,
2013-12-25 20:29:00,6.8,2.0,30.39,NNE,23,1.1,1.3,80,0.00,,,0.00,WUHU216HW,2013-12-26 01:29:00,
2013-12-25 20:34:00,6.8,2.3,30.38,NNE,23,1.1,2.5,81,0.00,,,0.00,WUHU216HW,2013-12-26 01:34:00,
2013-12-25 20:39:00,6.8,2.3,30.38,NNE,23,0.4,2.5,81,0.00,,,0.00,WUHU216HW,2013-12-26 01:39:00,
2013-12-25 20:44:00,7.4,2.5,30.39,NNE,23,0.2,1.6,80,0.00,,,0.00,WUHU216HW,2013-12-26 01:44:00,
2013-12-25 20:49:00,7.7,2.9,30.39,NNE,23,0.0,0.4,80,0.00,,,0.00,WUHU216HW,2013-12-26 01:49:00,
2013-12-25 20:54:00,8.3,3.4,30.39,NNE,23,0.0,0.2,80,0.00,,,0.00,WUHU216HW,2013-12-26 01:54:00,
2013-12-25 20:59:00,8.5,3.6,30.39,NNE,23,1.3,1.3,80,0.00,,,0.00,WUHU216HW,2013-12-26 01:59:00,
2013-12-25 21:04:00,8.5,3.9,30.39,NNE,23,1.1,1.8,81,0.00,,,0.00,WUHU216HW,2013-12-26 02:04:00,
2013-12-25 21:09:00,8.5,3.9,30.39,NNE,23,0.4,1.8,81,0.00,,,0.00,WUHU216HW,2013-12-26 02:09:00,
2013-12-25 21:14:00,8.6,4.1,30.39,NNE,23,0.2,1.1,81,0.00,,,0.00,WUHU216HW,2013-12-26 02:14:00,
2013-12-25 21:19:00,9.0,4.3,30.38,NNE,23,0.0,1.1,81,0.00,,,0.00,WUHU216HW,2013-12-26 02:19:00,
2013-12-25 21:24:00,9.0,4.2,30.38,NNE,23,0.0,1.1,80,0.00,,,0.00,WUHU216HW,2013-12-26 02:24:00,
2013-12-25 21:29:00,9.0,4.2,30.38,NNE,23,0.9,1.1,80,0.00,,,0.00,WUHU216HW,2013-12-26 02:29:00,
2013-12-25 21:34:00,8.8,4.0,30.38,NNE,23,0.0,1.1,80,0.00,,,0.00,WUHU216HW,2013-12-26 02:34:00,
2013-12-25 21:39:00,8.5,3.6,30.38,NNE,23,1.1,1.1,80,0.00,,,0.00,WUHU216HW,2013-12-26 02:39:00,
2013-12-25 21:44:00,8.3,3.4,30.38,NNE,23,0.4,1.3,80,0.00,,,0.00,WUHU216HW,2013-12-26 02:44:00,
2013-12-25 21:49:00,8.1,3.2,30.38,NNE,23,0.4,1.3,80,0.00,,,0.00,WUHU216HW,2013-12-26 02:49:00,
2013-12-25 21:54:00,7.9,3.1,30.38,NNE,23,0.4,0.4,80,0.00,,,0.00,WUHU216HW,2013-12-26 02:54:00,
2013-12-25 21:59:00,8.1,3.2,30.37,NNE,23,1.6,1.8,80,0.00,,,0.00,WUHU216HW,2013-12-26 02:59:00,
2013-12-25 22:04:00,8.1,3.2,30.37,NNE,23,0.2,1.8,80,0.00,,,0.00,WUHU216HW,2013-12-26 03:04:00,
2013-12-25 22:09:00,8.1,3.2,30.37,NNE,23,0.0,1.6,80,0.00,,,0.00,WUHU216HW,2013-12-26 03:09:00,
2013-12-25 22:14:00,8.1,3.2,30.37,NNE,23,0.0,0.4,80,0.00,,,0.00,WUHU216HW,2013-12-26 03:14:00,
2013-12-25 22:19:00,8.1,3.2,30.37,NNE,23,0.0,0.0,80,0.00,,,0.00,WUHU216HW,2013-12-26 03:19:00,
2013-12-25 22:24:00,8.1,3.2,30.37,NNE,23,0.0,0.0,80,0.00,,,0.00,WUHU216HW,2013-12-26 03:24:00,
2013-12-25 22:30:00,8.1,3.2,30.37,NNE,23,0.0,0.0,80,0.00,,,0.00,WUHU216HW,2013-12-26 03:30:00,
2013-12-25 22:35:00,8.1,3.2,30.36,NNE,23,0.0,0.0,80,0.00,,,0.00,WUHU216HW,2013-12-26 03:35:00,
2013-12-25 22:40:00,7.9,3.1,30.36,NNE,23,0.4,0.7,80,0.00,,,0.00,WUHU216HW,2013-12-26 03:40:00,
2013-12-25 22:45:00,7.6,2.7,30.36,NNE,23,0.0,0.7,80,0.00,,,0.00,WUHU216HW,2013-12-26 03:45:00,
2013-12-25 22:50:00,7.6,2.7,30.36,NNE,23,0.0,0.7,80,0.00,,,0.00,WUHU216HW,2013-12-26 03:50:00,
2013-12-25 22:55:00,7.6,2.7,30.36,NNE,23,0.0,0.0,80,0.00,,,0.00,WUHU216HW,2013-12-26 03:55:00,
2013-12-25 23:00:00,7.6,2.7,30.36,NNE,23,0.0,0.0,80,0.00,,,0.00,WUHU216HW,2013-12-26 04:00:00,
2013-12-25 23:05:00,7.6,2.7,30.36,NNE,23,0.4,0.4,80,0.00,,,0.00,WUHU216HW,2013-12-26 04:05:00,
2013-12-25 23:10:00,7.6,2.7,30.37,NNE,23,0.0,0.4,80,0.00,,,0.00,WUHU216HW,2013-12-26 04:10:00,
2013-12-25 23:15:00,7.4,2.5,30.37,NNE,23,0.4,0.4,80,0.00,,,0.00,WUHU216HW,2013-12-26 04:15:00,
2013-12-25 23:20:00,7.0,2.4,30.36,NNE,23,0.0,0.4,81,0.00,,,0.00,WUHU216HW,2013-12-26 04:20:00,
2013-12-25 23:25:00,6.8,2.3,30.36,NNE,23,0.0,0.4,81,0.00,,,0.00,WUHU216HW,2013-12-26 04:25:00,
2013-12-25 23:30:00,6.8,2.3,30.36,NNE,23,0.0,0.0,81,0.00,,,0.00,WUHU216HW,2013-12-26 04:30:00,
2013-12-25 23:35:00,6.8,2.3,30.36,NNE,23,0.0,0.0,81,0.00,,,0.00,WUHU216HW,2013-12-26 04:35:00,
2013-12-25 23:40:00,7.0,2.4,30.36,NNE,23,0.0,0.4,81,0.00,,,0.00,WUHU216HW,2013-12-26 04:40:00,
2013-12-25 23:45:00,7.2,2.6,30.36,NNE,23,0.4,0.4,81,0.00,,,0.00,WUHU216HW,2013-12-26 04:45:00,
2013-12-25 23:50:00,7.4,2.8,30.35,NNE,23,0.0,0.4,81,0.00,,,0.00,WUHU216HW,2013-12-26 04:50:00,
2013-12-25 23:55:00,7.6,3.0,30.35,NNE,23,0.2,0.4,81,0.00,,,0.00,WUHU216HW,2013-12-26 04:55:00,